Time;durP1;ratioP1;P1;durP2;ratioP2;P2;SDS_P1;SDS_P2;PMS_P1;PMS_P2;Temp;Humidity;BMP_temperature;BMP_pressure;BME280_temperature;BME280_humidity;BME280_pressure;Samples;Min_cycle;Max_cycle;Signal;HPM_P1;HPM_P2
2022/10/31 00:00:28;;;;;;;34.58;17.55;;;10.80;99.90;;;;;;5047052;28;20864;-45
2022/10/31 00:02:54;;;;;;;41.65;17.48;;;11.10;99.90;;;;;;5046950;28;20398;-44
2022/10/31 00:05:19;;;;;;;40.15;17.65;;;10.70;99.90;;;;;;5046949;28;20053;-45
2022/10/31 00:07:45;;;;;;;43.58;17.83;;;10.70;99.90;;;;;;5046793;28;20498;-44
2022/10/31 00:10:11;;;;;;;36.45;16.95;;;10.60;99.90;;;;;;5046354;28;20037;-45
2022/10/31 00:12:36;;;;;;;32.90;17.38;;;10.20;99.90;;;;;;5046851;28;20833;-44
2022/10/31 00:15:02;;;;;;;47.15;17.83;;;10.40;99.90;;;;;;5046478;28;20040;-45
2022/10/31 00:17:28;;;;;;;44.17;17.50;;;10.50;99.90;;;;;;5046978;28;20033;-44
2022/10/31 00:19:53;;;;;;;48.72;20.25;;;10.40;99.90;;;;;;5046828;28;20052;-45
2022/10/31 00:22:19;;;;;;;45.70;18.20;;;11.00;99.90;;;;;;5046992;28;20255;-47
2022/10/31 00:24:44;;;;;;;36.15;17.63;;;10.30;99.90;;;;;;5046912;28;20044;-47
2022/10/31 00:27:10;;;;;;;40.55;17.63;;;10.30;99.90;;;;;;5046973;28;20048;-44
2022/10/31 00:29:36;;;;;;;42.63;17.65;;;10.90;99.90;;;;;;5050965;28;20045;-45
2022/10/31 00:32:01;;;;;;;43.63;18.75;;;10.10;99.90;;;;;;5051102;28;20052;-44
2022/10/31 00:34:27;;;;;;;43.13;17.83;;;10.00;99.90;;;;;;5050863;28;20044;-43
2022/10/31 00:36:52;;;;;;;41.30;17.77;;;10.30;99.90;;;;;;5050786;28;20165;-47
2022/10/31 00:39:18;;;;;;;38.58;16.90;;;11.40;99.90;;;;;;5050788;28;20049;-45
2022/10/31 00:41:44;;;;;;;35.95;17.88;;;10.20;99.90;;;;;;5051241;28;20048;-44
2022/10/31 00:44:09;;;;;;;42.35;17.90;;;10.30;99.90;;;;;;5050914;28;20049;-45
2022/10/31 00:46:35;;;;;;;40.45;18.38;;;11.00;99.90;;;;;;5051073;28;20044;-45
2022/10/31 00:49:01;;;;;;;38.75;17.58;;;10.20;99.90;;;;;;5050767;28;20037;-45
2022/10/31 00:51:26;;;;;;;38.47;18.15;;;10.20;99.90;;;;;;5050540;28;20402;-44
2022/10/31 00:53:52;;;;;;;42.25;16.92;;;10.10;99.90;;;;;;5050298;28;20057;-45
2022/10/31 00:56:17;;;;;;;43.80;17.60;;;10.20;99.90;;;;;;5050744;28;20045;-48
2022/10/31 00:58:43;;;;;;;38.53;17.45;;;10.20;99.90;;;;;;5051415;28;20049;-44
2022/10/31 01:01:09;;;;;;;42.10;15.30;;;10.90;99.90;;;;;;5050739;28;20059;-44
2022/10/31 01:03:35;;;;;;;30.73;14.45;;;10.10;99.90;;;;;;5050983;28;20041;-44
2022/10/31 01:06:03;;;;;;;44.35;16.40;;;10.30;99.90;;;;;;5050791;28;20052;-44
2022/10/31 01:08:28;;;;;;;36.78;15.00;;;10.20;99.90;;;;;;5050861;28;20569;-44
2022/10/31 01:11:17;;;;;;;35.78;16.63;;;10.20;99.90;;;;;;5050939;28;20051;-44
2022/10/31 01:13:42;;;;;;;41.55;15.07;;;10.20;99.90;;;;;;5050562;28;20048;-44
2022/10/31 01:16:12;;;;;;;35.60;15.38;;;10.20;99.90;;;;;;5049826;28;20040;-44
2022/10/31 01:18:38;;;;;;;41.90;16.50;;;10.10;99.90;;;;;;5049915;28;20117;-46
2022/10/31 01:21:07;;;;;;;32.85;15.18;;;10.40;99.90;;;;;;5049945;28;20073;-45
2022/10/31 01:23:33;;;;;;;39.35;14.98;;;10.10;99.90;;;;;;5049707;28;20036;-45
2022/10/31 01:26:11;;;;;;;46.28;16.92;;;10.30;99.90;;;;;;5049790;28;20048;-44
2022/10/31 01:28:42;;;;;;;28.77;13.60;;;10.10;99.90;;;;;;5049793;28;20049;-47
2022/10/31 01:31:09;;;;;;;45.17;14.93;;;10.50;99.90;;;;;;5049524;28;20077;-44
2022/10/31 01:33:35;;;;;;;32.35;14.70;;;9.70;99.90;;;;;;5049529;28;20512;-44
2022/10/31 01:36:10;;;;;;;40.03;15.00;;;10.00;99.90;;;;;;5049495;28;20045;-44
2022/10/31 01:38:35;;;;;;;40.83;15.90;;;10.00;99.90;;;;;;5049542;28;20041;-43
2022/10/31 01:41:01;;;;;;;41.97;18.23;;;9.90;99.90;;;;;;5049738;28;20047;-44
2022/10/31 01:43:55;;;;;;;42.92;16.38;;;9.90;99.90;;;;;;5049813;28;20132;-44
2022/10/31 01:46:40;;;;;;;43.42;17.75;;;9.90;99.90;;;;;;5049710;28;20425;-44
2022/10/31 01:49:15;;;;;;;41.47;17.10;;;9.90;99.90;;;;;;5049885;28;20041;-45
2022/10/31 01:51:52;;;;;;;44.75;17.55;;;10.00;99.90;;;;;;5049899;28;20150;-45
2022/10/31 01:54:22;;;;;;;41.90;17.15;;;10.00;99.90;;;;;;5049493;28;20033;-43
2022/10/31 01:56:52;;;;;;;55.55;18.58;;;9.90;99.90;;;;;;5049613;28;20037;-44
2022/10/31 01:59:21;;;;;;;43.10;17.50;;;9.70;99.90;;;;;;5049273;28;20575;-44
2022/10/31 02:01:48;;;;;;;43.50;17.33;;;10.00;99.90;;;;;;5048962;28;20051;-45
2022/10/31 02:04:15;;;;;;;44.08;18.33;;;10.70;99.90;;;;;;5048822;28;20525;-48
2022/10/31 02:06:56;;;;;;;47.53;18.92;;;10.20;99.90;;;;;;5049262;28;20052;-48
2022/10/31 02:09:23;;;;;;;46.90;19.40;;;10.00;99.90;;;;;;5048759;28;20048;-44
2022/10/31 02:11:54;;;;;;;37.33;18.27;;;10.00;99.90;;;;;;5049075;28;20075;-49
2022/10/31 02:14:23;;;;;;;42.42;19.75;;;10.00;99.90;;;;;;5049394;28;20041;-49
2022/10/31 02:16:49;;;;;;;40.83;18.58;;;10.00;99.90;;;;;;5049069;28;20063;-46
2022/10/31 02:19:24;;;;;;;45.35;19.40;;;9.90;99.90;;;;;;5049467;28;20645;-45
2022/10/31 02:22:16;;;;;;;43.78;20.38;;;10.20;99.90;;;;;;5049357;28;20079;-47
2022/10/31 02:24:57;;;;;;;38.67;19.25;;;9.80;99.90;;;;;;5048541;28;20147;-44
2022/10/31 02:28:03;;;;;;;56.47;21.30;;;9.80;99.90;;;;;;5048987;28;20040;-47
2022/10/31 02:30:56;;;;;;;50.83;19.75;;;9.70;99.90;;;;;;5048877;28;20049;-47
2022/10/31 02:33:44;;;;;;;38.70;17.90;;;9.50;99.90;;;;;;5037347;28;20110;-45
2022/10/31 02:36:19;;;;;;;48.97;19.45;;;9.70;99.90;;;;;;5049327;28;20045;-47
2022/10/31 02:39:07;;;;;;;42.08;18.65;;;9.60;99.90;;;;;;5048987;28;20040;-47
2022/10/31 02:42:01;;;;;;;36.28;17.38;;;9.60;99.90;;;;;;5048814;28;20398;-47
2022/10/31 02:44:42;;;;;;;55.85;19.75;;;9.60;99.90;;;;;;5044546;28;20094;-46
2022/10/31 02:47:26;;;;;;;34.75;17.67;;;9.60;99.90;;;;;;5048743;28;20130;-46
2022/10/31 02:50:04;;;;;;;56.72;21.27;;;9.60;99.90;;;;;;5047879;28;20057;-47
2022/10/31 02:52:32;;;;;;;48.15;20.00;;;9.60;99.90;;;;;;5048138;28;20049;-49
2022/10/31 02:54:58;;;;;;;46.65;20.00;;;9.90;99.90;;;;;;5048828;28;20072;-45
2022/10/31 02:57:36;;;;;;;48.95;21.35;;;9.60;99.90;;;;;;5046949;28;20081;-45
2022/10/31 03:00:05;;;;;;;61.67;21.98;;;9.60;99.90;;;;;;5048784;28;20565;-45
2022/10/31 03:02:40;;;;;;;42.08;19.80;;;9.60;99.90;;;;;;5048697;28;20440;-49
2022/10/31 03:05:42;;;;;;;51.63;23.00;;;9.60;99.90;;;;;;5048660;28;20044;-48
2022/10/31 03:08:19;;;;;;;56.15;23.45;;;9.60;99.90;;;;;;5048763;28;20825;-44
2022/10/31 03:11:00;;;;;;;48.40;24.98;;;9.60;99.90;;;;;;5048415;28;20045;-47
2022/10/31 03:14:03;;;;;;;45.50;24.60;;;9.70;99.90;;;;;;5048271;28;20161;-44
2022/10/31 03:16:46;;;;;;;69.63;26.92;;;9.70;99.90;;;;;;5047997;28;20528;-46
2022/10/31 03:19:16;;;;;;;61.58;27.77;;;9.70;99.90;;;;;;5048202;28;20445;-45
2022/10/31 03:21:47;;;;;;;55.95;27.88;;;9.70;99.90;;;;;;5048037;28;20572;-44
2022/10/31 03:24:15;;;;;;;67.85;28.15;;;9.70;99.90;;;;;;5048035;28;20405;-46
2022/10/31 03:26:54;;;;;;;64.47;28.02;;;9.70;99.90;;;;;;5047735;28;20394;-47
2022/10/31 03:29:25;;;;;;;66.05;27.77;;;9.60;99.90;;;;;;5048037;28;20053;-44
2022/10/31 03:32:15;;;;;;;69.03;28.48;;;9.60;99.90;;;;;;5047439;28;20074;-45
2022/10/31 03:34:42;;;;;;;58.72;27.27;;;10.30;99.90;;;;;;5047402;28;20056;-47
2022/10/31 03:37:12;;;;;;;67.47;28.27;;;9.60;99.90;;;;;;5047553;28;20047;-44
2022/10/31 03:39:40;;;;;;;61.33;27.52;;;9.60;99.90;;;;;;5046237;28;20128;-45
2022/10/31 03:42:11;;;;;;;64.13;28.40;;;9.50;99.90;;;;;;5047858;28;20427;-46
2022/10/31 03:44:40;;;;;;;54.22;26.33;;;9.40;99.90;;;;;;5046233;28;20052;-45
2022/10/31 03:47:06;;;;;;;74.93;30.02;;;9.50;99.90;;;;;;5047794;28;20095;-44
2022/10/31 03:49:33;;;;;;;65.28;28.23;;;9.50;99.90;;;;;;5047493;28;20132;-44
2022/10/31 03:52:20;;;;;;;87.22;30.40;;;9.80;99.90;;;;;;5047642;28;20045;-44
2022/10/31 03:54:54;;;;;;;66.45;28.77;;;9.40;99.90;;;;;;5047077;28;20044;-45
2022/10/31 03:57:32;;;;;;;57.58;29.10;;;9.40;99.90;;;;;;5047395;28;20611;-45
2022/10/31 04:00:03;;;;;;;86.38;33.03;;;9.70;99.90;;;;;;5047427;28;20049;-43
2022/10/31 04:02:31;;;;;;;68.72;29.65;;;9.40;99.90;;;;;;5046815;28;20067;-46
2022/10/31 04:04:58;;;;;;;79.38;31.45;;;9.80;99.90;;;;;;5047555;28;20045;-45
2022/10/31 04:07:28;;;;;;;72.60;30.98;;;9.30;99.90;;;;;;5047505;28;20060;-48
2022/10/31 04:09:55;;;;;;;76.30;32.25;;;9.30;99.90;;;;;;5047684;28;20116;-44
2022/10/31 04:12:23;;;;;;;63.67;30.65;;;9.50;99.90;;;;;;5047548;28;20543;-45
2022/10/31 04:14:50;;;;;;;67.13;29.25;;;9.30;99.90;;;;;;5047437;28;20041;-43
2022/10/31 04:17:18;;;;;;;71.05;31.85;;;9.40;99.90;;;;;;5047366;28;20044;-45
2022/10/31 04:19:44;;;;;;;64.97;30.58;;;9.30;99.90;;;;;;5046928;28;20045;-44
2022/10/31 04:22:10;;;;;;;61.88;30.63;;;9.30;99.90;;;;;;5047638;28;20056;-44
2022/10/31 04:24:38;;;;;;;75.05;32.72;;;9.30;99.90;;;;;;5047378;28;20047;-45
2022/10/31 04:27:04;;;;;;;63.20;29.85;;;9.30;99.90;;;;;;5047475;28;20045;-43
2022/10/31 04:29:30;;;;;;;75.60;31.70;;;9.20;99.90;;;;;;5047599;28;20389;-45
2022/10/31 04:31:55;;;;;;;72.57;30.70;;;9.60;99.90;;;;;;5047416;28;20056;-48
2022/10/31 04:34:21;;;;;;;65.97;31.35;;;9.30;99.90;;;;;;5046987;28;20044;-44
2022/10/31 04:36:47;;;;;;;63.28;30.35;;;9.20;99.90;;;;;;5047001;28;20041;-45
2022/10/31 04:39:12;;;;;;;60.97;30.42;;;9.20;99.90;;;;;;5047032;28;20056;-44
2022/10/31 04:41:38;;;;;;;64.78;29.80;;;9.20;99.90;;;;;;5047140;28;20048;-44
2022/10/31 04:44:03;;;;;;;70.57;32.30;;;9.20;99.90;;;;;;5047057;28;20045;-44
2022/10/31 04:46:29;;;;;;;63.55;30.33;;;10.00;99.90;;;;;;5047188;28;20041;-47
2022/10/31 04:48:56;;;;;;;75.07;32.92;;;9.10;99.90;;;;;;5047028;28;20045;-45
2022/10/31 04:51:22;;;;;;;68.40;31.02;;;9.20;99.90;;;;;;5047335;28;20080;-44
2022/10/31 04:53:47;;;;;;;65.40;30.92;;;9.20;99.90;;;;;;5047255;28;20049;-43
2022/10/31 04:56:13;;;;;;;78.72;33.20;;;9.10;99.90;;;;;;5047076;28;20044;-46
2022/10/31 04:58:39;;;;;;;68.38;31.63;;;9.10;99.90;;;;;;5045961;28;20048;-49
2022/10/31 05:01:04;;;;;;;73.75;31.77;;;9.50;99.90;;;;;;5047042;28;20122;-44
2022/10/31 05:03:30;;;;;;;72.63;32.47;;;8.80;99.90;;;;;;5047246;28;20048;-44
2022/10/31 05:05:56;;;;;;;91.25;35.33;;;9.10;99.90;;;;;;5046887;28;20045;-44
2022/10/31 05:08:21;;;;;;;63.80;29.95;;;9.70;99.90;;;;;;5046957;28;20622;-44
2022/10/31 05:10:47;;;;;;;77.53;34.03;;;9.10;99.90;;;;;;5046724;28;20037;-45
2022/10/31 05:13:14;;;;;;;85.50;32.60;;;9.10;99.90;;;;;;5047179;28;20356;-45
2022/10/31 05:15:40;;;;;;;70.85;30.00;;;9.00;99.90;;;;;;5050747;28;20053;-49
2022/10/31 05:18:05;;;;;;;75.38;31.77;;;9.00;99.90;;;;;;5050490;28;20048;-45
2022/10/31 05:20:32;;;;;;;67.93;30.98;;;9.30;99.90;;;;;;5050535;28;20162;-43
2022/10/31 05:22:59;;;;;;;79.45;32.92;;;9.00;99.90;;;;;;5050255;28;20476;-47
2022/10/31 05:25:27;;;;;;;59.60;31.30;;;9.00;99.90;;;;;;5050406;28;20037;-45
2022/10/31 05:27:53;;;;;;;76.38;33.05;;;8.90;99.90;;;;;;5050053;28;20055;-43
2022/10/31 05:30:22;;;;;;;102.75;33.97;;;8.90;99.90;;;;;;5049991;28;20482;-44
2022/10/31 05:32:50;;;;;;;67.30;26.90;;;8.80;99.90;;;;;;5050394;28;20049;-44
2022/10/31 05:35:21;;;;;;;71.93;29.40;;;8.80;99.90;;;;;;5050118;28;20111;-47
2022/10/31 05:37:47;;;;;;;79.53;32.75;;;8.70;99.90;;;;;;5050166;28;20048;-45
2022/10/31 05:40:14;;;;;;;67.40;29.42;;;8.60;99.90;;;;;;5049726;28;20041;-45
2022/10/31 05:42:41;;;;;;;55.63;26.30;;;8.50;99.90;;;;;;5050012;28;20110;-43
2022/10/31 05:45:15;;;;;;;57.38;26.40;;;8.30;99.90;;;;;;5050158;28;20049;-44
2022/10/31 05:47:41;;;;;;;60.92;27.05;;;8.50;99.90;;;;;;5050060;28;20076;-43
2022/10/31 05:50:08;;;;;;;74.93;28.75;;;8.30;99.90;;;;;;5049818;28;20114;-44
2022/10/31 05:52:34;;;;;;;50.13;23.77;;;8.40;99.90;;;;;;5050026;28;20530;-45
2022/10/31 05:55:00;;;;;;;54.17;24.60;;;8.50;99.90;;;;;;5049654;28;20521;-44
2022/10/31 05:57:26;;;;;;;62.50;25.73;;;8.30;99.90;;;;;;5050221;28;20040;-44
2022/10/31 05:59:52;;;;;;;48.97;24.67;;;8.10;99.90;;;;;;5050562;28;20067;-45
2022/10/31 06:02:21;;;;;;;75.03;28.70;;;8.20;99.90;;;;;;5049925;28;20049;-43
2022/10/31 06:04:47;;;;;;;73.72;29.55;;;8.50;99.90;;;;;;5049982;28;20041;-43
2022/10/31 06:07:13;;;;;;;66.95;28.02;;;8.50;99.90;;;;;;5049336;28;20045;-44
2022/10/31 06:09:38;;;;;;;52.10;25.98;;;8.60;99.90;;;;;;5049519;28;20041;-44
2022/10/31 06:12:04;;;;;;;66.13;28.50;;;8.50;99.90;;;;;;5049175;28;20481;-43
2022/10/31 06:14:30;;;;;;;87.68;33.70;;;8.20;99.90;;;;;;5049646;28;20128;-44
2022/10/31 06:16:56;;;;;;;81.65;33.60;;;8.60;99.90;;;;;;5049494;28;20521;-44
2022/10/31 06:19:21;;;;;;;60.85;30.38;;;8.20;99.90;;;;;;5049601;28;20045;-43
2022/10/31 06:21:47;;;;;;;71.90;33.00;;;9.10;99.90;;;;;;5049568;28;20063;-43
2022/10/31 06:24:13;;;;;;;67.60;31.52;;;8.70;99.90;;;;;;5049480;28;20040;-44
2022/10/31 06:26:38;;;;;;;85.05;34.17;;;9.20;99.90;;;;;;5048879;28;20056;-44
2022/10/31 06:29:04;;;;;;;79.35;36.00;;;8.50;99.90;;;;;;5049694;28;20410;-43
2022/10/31 06:31:30;;;;;;;77.78;35.13;;;9.40;99.90;;;;;;5050036;28;20826;-46
2022/10/31 06:33:56;;;;;;;98.75;38.35;;;8.80;99.90;;;;;;5049736;28;20421;-44
2022/10/31 06:36:22;;;;;;;77.72;35.00;;;8.70;99.90;;;;;;5049677;28;20037;-44
2022/10/31 06:38:47;;;;;;;113.85;41.90;;;8.90;99.90;;;;;;5049463;28;20052;-43
2022/10/31 06:41:13;;;;;;;81.20;36.13;;;8.90;99.90;;;;;;5049519;28;20040;-44
2022/10/31 06:43:38;;;;;;;84.13;36.13;;;8.90;99.90;;;;;;5049546;28;20049;-45
2022/10/31 06:46:05;;;;;;;87.63;36.67;;;9.10;99.90;;;;;;5049555;28;20051;-44
2022/10/31 06:48:31;;;;;;;379.33;52.72;;;9.00;99.90;;;;;;5049567;28;20940;-45
2022/10/31 06:50:59;;;;;;;334.08;46.63;;;9.30;99.90;;;;;;5049518;28;20559;-43
2022/10/31 06:53:24;;;;;;;138.52;36.47;;;8.80;99.90;;;;;;5049344;28;20501;-44
2022/10/31 06:55:50;;;;;;;107.00;30.80;;;8.30;99.90;;;;;;5049596;28;20104;-44
2022/10/31 06:58:16;;;;;;;54.78;22.42;;;8.30;99.90;;;;;;5049025;28;20045;-45
2022/10/31 07:00:41;;;;;;;50.20;22.17;;;8.10;99.90;;;;;;5049257;28;20041;-46
2022/10/31 07:03:11;;;;;;;79.57;28.05;;;8.10;99.90;;;;;;5049314;28;20495;-44
2022/10/31 07:05:37;;;;;;;88.82;29.90;;;8.10;99.90;;;;;;5049243;28;20041;-47
2022/10/31 07:08:06;;;;;;;46.80;22.90;;;8.00;99.90;;;;;;5031131;28;20453;-44
2022/10/31 07:10:35;;;;;;;65.93;27.58;;;8.00;99.90;;;;;;5048871;28;20045;-43
2022/10/31 07:13:05;;;;;;;69.15;30.80;;;8.00;99.90;;;;;;5048411;28;20127;-43
2022/10/31 07:15:36;;;;;;;104.97;35.22;;;8.00;99.90;;;;;;5047992;28;20056;-45
2022/10/31 07:18:06;;;;;;;76.25;32.45;;;8.30;99.90;;;;;;5048313;28;20739;-44
2022/10/31 07:20:32;;;;;;;107.82;35.13;;;8.20;99.90;;;;;;5048326;28;20041;-44
2022/10/31 07:22:58;;;;;;;232.98;45.83;;;8.20;99.90;;;;;;5048543;28;20552;-45
2022/10/31 07:25:24;;;;;;;87.40;32.97;;;8.10;99.90;;;;;;5048274;28;20037;-44
2022/10/31 07:27:50;;;;;;;131.75;40.30;;;8.30;99.90;;;;;;5048777;28;20040;-44
2022/10/31 07:30:19;;;;;;;135.80;40.75;;;8.20;99.90;;;;;;5048702;28;20418;-48
2022/10/31 07:32:47;;;;;;;129.30;42.45;;;8.40;99.90;;;;;;5047120;28;20037;-48
2022/10/31 07:35:15;;;;;;;113.38;39.67;;;8.50;99.90;;;;;;5048189;28;20098;-46
2022/10/31 07:37:40;;;;;;;76.85;34.63;;;8.40;99.90;;;;;;5046505;28;20039;-48
2022/10/31 07:40:08;;;;;;;107.82;42.40;;;8.10;99.90;;;;;;5048470;28;20041;-45
2022/10/31 07:42:42;;;;;;;76.22;34.45;;;8.50;99.90;;;;;;5047725;28;20045;-47
2022/10/31 07:45:10;;;;;;;145.30;39.72;;;8.40;99.90;;;;;;5048262;28;20076;-44
2022/10/31 07:47:52;;;;;;;96.68;36.90;;;8.50;99.90;;;;;;5047769;28;20048;-47
2022/10/31 07:50:20;;;;;;;266.27;48.97;;;8.60;99.90;;;;;;5047778;28;20172;-45
2022/10/31 07:52:46;;;;;;;196.68;38.25;;;8.90;99.90;;;;;;5047815;28;20084;-45
2022/10/31 07:55:12;;;;;;;149.68;39.80;;;8.50;99.90;;;;;;5048087;28;20052;-45
2022/10/31 07:57:38;;;;;;;114.85;37.33;;;8.50;99.90;;;;;;5047975;28;20052;-45
2022/10/31 08:00:05;;;;;;;87.47;33.08;;;8.30;99.90;;;;;;5048348;28;20056;-48
2022/10/31 08:02:31;;;;;;;156.38;36.83;;;8.60;99.90;;;;;;5047751;28;20057;-45
2022/10/31 08:04:57;;;;;;;128.00;37.03;;;8.60;99.90;;;;;;5047746;28;20479;-43
2022/10/31 08:07:23;;;;;;;113.15;34.42;;;8.60;99.90;;;;;;5046157;28;20055;-44
2022/10/31 08:09:48;;;;;;;161.60;43.72;;;8.80;99.90;;;;;;5047419;28;20047;-47
2022/10/31 08:12:14;;;;;;;164.80;46.13;;;9.60;99.90;;;;;;5047363;28;20079;-47
2022/10/31 08:14:40;;;;;;;127.88;41.97;;;9.10;99.90;;;;;;5046890;28;20044;-43
2022/10/31 08:17:05;;;;;;;100.07;39.47;;;9.20;99.90;;;;;;5047193;28;20059;-45
2022/10/31 08:19:31;;;;;;;70.88;35.83;;;9.30;99.90;;;;;;5046790;28;20842;-45
2022/10/31 08:21:58;;;;;;;66.68;34.17;;;9.40;99.90;;;;;;5047207;28;20443;-45
2022/10/31 08:24:23;;;;;;;106.50;40.58;;;9.40;99.90;;;;;;5049441;28;20049;-53
2022/10/31 08:26:49;;;;;;;75.38;34.08;;;9.60;99.90;;;;;;5048857;28;20152;-53
2022/10/31 08:29:15;;;;;;;86.05;37.60;;;9.50;99.90;;;;;;5049122;28;20120;-54
2022/10/31 08:31:42;;;;;;;100.20;42.13;;;9.70;99.90;;;;;;5049920;28;20615;-53
2022/10/31 08:34:07;;;;;;;86.57;40.88;;;9.80;99.90;;;;;;5049938;28;20044;-53
2022/10/31 08:36:33;;;;;;;71.15;38.20;;;10.60;99.90;;;;;;5049444;28;20033;-54
2022/10/31 08:38:59;;;;;;;70.35;38.05;;;9.80;99.90;;;;;;5049710;28;20040;-54
2022/10/31 08:41:25;;;;;;;77.47;39.97;;;10.50;99.90;;;;;;5049612;28;20052;-54
2022/10/31 08:43:50;;;;;;;70.10;39.53;;;11.20;99.90;;;;;;5049450;28;20045;-54
2022/10/31 08:46:16;;;;;;;68.47;40.10;;;10.50;99.90;;;;;;5049733;28;20441;-53
2022/10/31 08:48:42;;;;;;;69.70;41.45;;;10.70;99.90;;;;;;5050428;28;20075;-53
2022/10/31 08:51:09;;;;;;;64.45;37.80;;;11.00;99.90;;;;;;5053445;28;20463;-54
2022/10/31 08:53:35;;;;;;;73.53;40.58;;;11.00;99.90;;;;;;5053654;28;20052;-54
2022/10/31 08:56:01;;;;;;;68.10;39.35;;;11.40;99.90;;;;;;5054154;28;20040;-54
2022/10/31 08:58:27;;;;;;;62.30;38.95;;;11.40;99.90;;;;;;5051846;28;20045;-52
2022/10/31 09:00:54;;;;;;;67.25;39.50;;;11.20;99.90;;;;;;5053970;28;20037;-54
2022/10/31 09:03:30;;;;;;;46.35;32.45;;;11.50;99.90;;;;;;5054514;28;20067;-54
2022/10/31 09:06:02;;;;;;;55.58;35.40;;;11.70;99.90;;;;;;5040121;28;20041;-55
2022/10/31 09:08:30;;;;;;;62.25;37.80;;;12.20;99.90;;;;;;5049147;28;20091;-45
2022/10/31 09:10:57;;;;;;;57.60;37.78;;;12.10;99.90;;;;;;5043577;28;20037;-46
2022/10/31 09:13:24;;;;;;;53.10;34.65;;;12.30;99.90;;;;;;5044562;28;20040;-45
2022/10/31 09:15:50;;;;;;;49.47;33.85;;;12.40;99.90;;;;;;5045267;28;20526;-44
2022/10/31 09:18:22;;;;;;;48.53;31.15;;;12.30;99.90;;;;;;5042838;28;20036;-48
2022/10/31 09:20:48;;;;;;;50.90;33.37;;;12.40;99.90;;;;;;5043728;28;20029;-46
2022/10/31 09:23:23;;;;;;;46.75;31.60;;;12.20;99.90;;;;;;5042044;28;20647;-48
2022/10/31 09:25:51;;;;;;;44.67;30.85;;;12.50;99.90;;;;;;5043899;28;20056;-49
2022/10/31 09:28:19;;;;;;;44.70;30.30;;;12.60;99.90;;;;;;5044585;28;20044;-46
2022/10/31 09:30:47;;;;;;;40.30;28.50;;;12.60;99.90;;;;;;5043706;28;20486;-45
2022/10/31 09:33:14;;;;;;;39.03;27.10;;;12.70;99.90;;;;;;5044690;28;20055;-45
2022/10/31 09:35:40;;;;;;;34.63;26.83;;;12.80;99.90;;;;;;5044606;28;20041;-47
2022/10/31 09:38:14;;;;;;;39.95;28.42;;;12.90;99.90;;;;;;5045253;28;20066;-47
2022/10/31 09:41:01;;;;;;;39.03;27.25;;;13.00;99.90;;;;;;5042624;28;20047;-54
2022/10/31 09:43:57;;;;;;;35.78;26.20;;;13.20;99.90;;;;;;5045323;28;20051;-56
2022/10/31 09:46:40;;;;;;;34.75;25.38;;;13.20;99.90;;;;;;5035448;28;20827;-57
2022/10/31 09:49:34;;;;;;;33.53;24.38;;;13.20;99.90;;;;;;5017980;28;20060;-46
2022/10/31 09:52:11;;;;;;;33.75;23.63;;;13.20;99.90;;;;;;5031366;28;20044;-48
2022/10/31 09:54:53;;;;;;;26.77;21.75;;;13.00;99.90;;;;;;5034274;28;20064;-48
2022/10/31 09:57:31;;;;;;;31.80;23.10;;;13.20;99.90;;;;;;5032064;28;20525;-46
2022/10/31 09:59:58;;;;;;;30.85;22.45;;;13.20;99.90;;;;;;5028597;28;22873;-51
2022/10/31 10:02:30;;;;;;;30.50;22.77;;;13.20;99.90;;;;;;5030115;28;20060;-48
2022/10/31 10:05:09;;;;;;;28.52;22.00;;;13.20;99.90;;;;;;5031997;28;20041;-50
2022/10/31 10:08:03;;;;;;;28.05;21.25;;;13.20;99.90;;;;;;5023681;28;20131;-40
2022/10/31 10:10:45;;;;;;;26.00;20.48;;;13.30;99.90;;;;;;5012019;28;20115;-42
2022/10/31 10:13:21;;;;;;;29.05;20.85;;;13.30;99.90;;;;;;5030779;28;20040;-40
2022/10/31 10:16:09;;;;;;;31.27;21.90;;;13.30;99.90;;;;;;5031680;28;20037;-40
2022/10/31 10:19:12;;;;;;;32.45;22.20;;;13.70;99.90;;;;;;5031775;28;20044;-40
2022/10/31 10:21:44;;;;;;;28.67;20.67;;;13.50;99.90;;;;;;5014700;28;20564;-40
2022/10/31 10:24:21;;;;;;;25.92;19.30;;;13.50;99.90;;;;;;5033317;28;20044;-49
2022/10/31 10:27:10;;;;;;;31.52;20.75;;;13.50;99.90;;;;;;5013811;28;20576;-48
2022/10/31 10:29:57;;;;;;;24.77;20.90;;;13.50;99.90;;;;;;5030256;28;20045;-48
2022/10/31 10:32:28;;;;;;;30.08;21.13;;;13.60;99.90;;;;;;5030817;28;20041;-41
2022/10/31 10:35:08;;;;;;;30.02;21.17;;;13.70;99.90;;;;;;5011733;28;20049;-41
2022/10/31 10:37:38;;;;;;;25.90;19.25;;;13.80;99.90;;;;;;5031849;28;20041;-39
2022/10/31 10:40:19;;;;;;;25.65;19.02;;;14.00;99.90;;;;;;5034386;28;20144;-42
2022/10/31 10:43:19;;;;;;;25.60;18.70;;;14.10;99.90;;;;;;5033159;28;20140;-38
2022/10/31 10:49:16;;;;;;;23.25;16.65;;;14.30;99.90;;;;;;5028697;28;20049;-40
2022/10/31 10:52:13;;;;;;;25.73;18.50;;;14.50;99.90;;;;;;5023056;28;20061;-41
2022/10/31 10:54:41;;;;;;;24.70;17.60;;;14.60;99.90;;;;;;5033233;28;20036;-39
2022/10/31 10:57:10;;;;;;;24.17;17.58;;;14.70;99.90;;;;;;5034042;28;20048;-48
2022/10/31 10:59:35;;;;;;;22.08;17.27;;;14.70;99.90;;;;;;5034029;28;20044;-39
2022/10/31 11:02:15;;;;;;;20.60;15.25;;;14.70;99.90;;;;;;5034423;28;20051;-42
2022/10/31 11:04:41;;;;;;;22.65;17.02;;;14.70;99.90;;;;;;5033292;28;20044;-47
2022/10/31 11:07:09;;;;;;;25.90;17.35;;;14.70;99.90;;;;;;5017187;28;20059;-49
2022/10/31 11:09:36;;;;;;;22.15;16.63;;;14.70;99.90;;;;;;5028559;28;20041;-47
2022/10/31 11:12:09;;;;;;;20.67;13.82;;;14.70;99.90;;;;;;5040913;28;20025;-47
2022/10/31 11:14:59;;;;;;;20.20;14.30;;;14.70;99.90;;;;;;5043033;28;20028;-46
2022/10/31 11:17:32;;;;;;;19.50;13.50;;;14.80;99.90;;;;;;5041930;28;20039;-46
2022/10/31 11:20:01;;;;;;;17.70;13.40;;;14.80;99.90;;;;;;5041702;28;20037;-45
2022/10/31 11:22:27;;;;;;;24.17;14.52;;;15.00;99.90;;;;;;5041456;28;20033;-46
2022/10/31 11:24:53;;;;;;;22.30;13.85;;;15.00;99.90;;;;;;5042857;28;20044;-46
2022/10/31 11:27:24;;;;;;;18.30;13.50;;;15.30;99.90;;;;;;5042828;28;20045;-45
2022/10/31 11:29:50;;;;;;;19.73;12.85;;;15.20;99.90;;;;;;5041269;28;20044;-46
2022/10/31 11:32:27;;;;;;;19.38;13.25;;;15.40;99.90;;;;;;5042776;28;20033;-46
2022/10/31 11:34:57;;;;;;;18.85;11.77;;;15.50;99.90;;;;;;5042526;28;20068;-46
2022/10/31 11:37:29;;;;;;;15.43;11.88;;;15.60;99.90;;;;;;5042044;28;20508;-46
2022/10/31 11:40:01;;;;;;;17.20;11.45;;;15.30;99.90;;;;;;5042451;28;20053;-59
2022/10/31 11:42:36;;;;;;;19.20;11.45;;;15.30;99.90;;;;;;5042453;28;20041;-58
2022/10/31 11:45:17;;;;;;;16.05;9.85;;;15.20;99.90;;;;;;5042509;28;20041;-59
2022/10/31 11:47:48;;;;;;;19.38;11.50;;;15.30;99.90;;;;;;5042155;28;20109;-58
2022/10/31 11:50:35;;;;;;;13.98;8.85;;;15.30;99.90;;;;;;5041367;28;20088;-59
2022/10/31 11:53:02;;;;;;;14.20;9.57;;;15.30;99.90;;;;;;5041326;28;20048;-59
2022/10/31 11:55:41;;;;;;;12.25;9.27;;;15.30;99.90;;;;;;5041674;28;20047;-59
2022/10/31 11:58:25;;;;;;;15.00;10.23;;;15.30;99.90;;;;;;5040827;28;20173;-59
2022/10/31 12:00:54;;;;;;;15.38;9.52;;;15.20;99.90;;;;;;5040762;28;20116;-58
2022/10/31 12:03:22;;;;;;;16.00;10.50;;;15.20;99.90;;;;;;5038809;28;20045;-59
2022/10/31 12:06:21;;;;;;;13.15;9.77;;;15.30;99.90;;;;;;5026648;28;20164;-58
2022/10/31 12:08:47;;;;;;;18.08;11.63;;;15.40;99.90;;;;;;5037681;28;20053;-59
2022/10/31 12:11:40;;;;;;;19.23;12.18;;;15.40;99.90;;;;;;5040786;28;20588;-59
2022/10/31 12:14:25;;;;;;;18.35;10.70;;;15.50;99.90;;;;;;5041821;28;20048;-58
2022/10/31 12:17:06;;;;;;;19.30;12.13;;;15.60;99.90;;;;;;5042196;28;20033;-59
2022/10/31 12:19:34;;;;;;;21.27;11.87;;;15.60;99.90;;;;;;5041743;28;20051;-58
2022/10/31 12:22:24;;;;;;;16.02;11.43;;;15.60;99.90;;;;;;5040287;28;20297;-59
2022/10/31 12:25:21;;;;;;;18.95;11.77;;;15.60;99.90;;;;;;5040928;28;20041;-59
2022/10/31 12:28:17;;;;;;;14.48;9.70;;;15.50;99.90;;;;;;5041699;28;20155;-59
2022/10/31 12:30:54;;;;;;;15.07;11.00;;;15.50;99.90;;;;;;5041773;28;20048;-59
2022/10/31 12:33:20;;;;;;;19.08;10.25;;;15.40;99.90;;;;;;5041274;28;20120;-59
2022/10/31 12:35:55;;;;;;;22.85;10.65;;;15.40;99.90;;;;;;5042310;28;20033;-59
2022/10/31 12:38:40;;;;;;;16.25;10.35;;;15.40;99.90;;;;;;5041381;28;20375;-58
2022/10/31 12:41:22;;;;;;;17.65;11.43;;;15.40;99.90;;;;;;5041757;28;20044;-52
2022/10/31 12:44:00;;;;;;;15.73;9.33;;;15.40;99.90;;;;;;5041846;28;20037;-50
2022/10/31 12:46:56;;;;;;;15.73;9.15;;;15.40;99.90;;;;;;5041319;28;20401;-48
2022/10/31 12:49:54;;;;;;;14.73;8.32;;;15.40;99.90;;;;;;5041080;28;20055;-51
2022/10/31 12:52:40;;;;;;;14.85;7.97;;;15.40;99.90;;;;;;5041044;28;20055;-50
2022/10/31 12:55:21;;;;;;;12.95;7.68;;;15.40;99.90;;;;;;5041700;28;20029;-51